Time;durP1;ratioP1;P1;durP2;ratioP2;P2;SDS_P1;SDS_P2;PMS_P1;PMS_P2;Temp;Humidity;BMP_temperature;BMP_pressure;BME280_temperature;BME280_humidity;BME280_pressure;Samples;Min_cycle;Max_cycle;Signal;HPM_P1;HPM_P2
2022/08/06 00:00:13;;;;;;;6.43;2.80;;;13.10;1.00;;;;;;5113703;28;20210;-66
2022/08/06 00:02:40;;;;;;;2.90;2.27;;;13.10;1.00;;;;;;5113495;28;20243;-66
2022/08/06 00:05:08;;;;;;;4.60;2.53;;;13.00;1.00;;;;;;5113641;28;20218;-66
2022/08/06 00:07:36;;;;;;;5.17;2.80;;;13.00;1.00;;;;;;5113104;28;20615;-66
2022/08/06 00:10:03;;;;;;;6.70;3.00;;;12.90;1.00;;;;;;5113575;28;20236;-66
2022/08/06 00:12:32;;;;;;;5.17;2.80;;;12.90;1.00;;;;;;5113534;28;20227;-66
2022/08/06 00:14:59;;;;;;;5.27;2.97;;;12.90;1.00;;;;;;5113199;28;20202;-66
2022/08/06 00:17:26;;;;;;;4.60;2.70;;;12.90;1.00;;;;;;5112887;28;20255;-66
2022/08/06 00:19:52;;;;;;;6.30;3.83;;;12.90;1.00;;;;;;5113081;28;20587;-66
2022/08/06 00:22:19;;;;;;;6.53;3.07;;;12.80;1.00;;;;;;5113109;28;20228;-66
2022/08/06 00:24:47;;;;;;;7.47;3.07;;;12.80;1.00;;;;;;5113169;28;20237;-66
2022/08/06 00:27:14;;;;;;;6.00;2.90;;;12.80;1.00;;;;;;5112621;28;20207;-66
2022/08/06 00:29:40;;;;;;;5.07;2.33;;;12.70;1.00;;;;;;5113059;28;20209;-67
2022/08/06 00:32:07;;;;;;;5.47;2.47;;;12.70;1.00;;;;;;5113046;28;20254;-66
2022/08/06 00:34:34;;;;;;;3.93;2.40;;;12.70;1.00;;;;;;5112794;28;20263;-66
2022/08/06 00:37:01;;;;;;;3.57;2.80;;;12.60;1.00;;;;;;5112597;28;20207;-66
2022/08/06 00:39:27;;;;;;;5.47;3.00;;;12.50;1.00;;;;;;5113122;28;20212;-66
2022/08/06 00:41:56;;;;;;;6.20;2.77;;;12.50;1.00;;;;;;5112734;28;20272;-66
2022/08/06 00:44:22;;;;;;;4.60;3.00;;;12.50;1.00;;;;;;5113307;28;20646;-66
2022/08/06 00:46:49;;;;;;;4.33;2.63;;;12.40;1.00;;;;;;5114518;28;20257;-66
2022/08/06 00:49:16;;;;;;;4.13;2.57;;;12.40;1.00;;;;;;5114916;28;20204;-67
2022/08/06 00:51:43;;;;;;;3.57;2.70;;;12.40;1.00;;;;;;5114271;28;20224;-67
2022/08/06 00:54:10;;;;;;;5.80;2.83;;;12.40;1.00;;;;;;5113046;28;20210;-66
2022/08/06 00:56:36;;;;;;;5.77;2.60;;;12.30;1.00;;;;;;5112245;28;20271;-66
2022/08/06 00:59:05;;;;;;;3.17;2.30;;;12.30;1.00;;;;;;5112609;28;20205;-66
2022/08/06 01:01:32;;;;;;;5.37;2.60;;;12.20;1.10;;;;;;5112479;28;20229;-66
2022/08/06 01:03:59;;;;;;;7.13;2.60;;;12.20;4.20;;;;;;5112357;28;20215;-66
2022/08/06 01:06:26;;;;;;;4.27;2.40;;;12.10;7.20;;;;;;5112187;28;20231;-66
2022/08/06 01:08:53;;;;;;;6.50;2.30;;;12.10;12.90;;;;;;5112385;28;20829;-66
2022/08/06 01:11:20;;;;;;;3.90;2.50;;;12.10;17.00;;;;;;5112374;28;20228;-66
2022/08/06 01:13:46;;;;;;;5.33;2.43;;;12.00;20.00;;;;;;5112391;28;20207;-67
2022/08/06 01:16:22;;;;;;;7.53;2.80;;;12.00;23.60;;;;;;5112066;28;20204;-66
2022/08/06 01:18:59;;;;;;;5.83;2.60;;;12.00;26.40;;;;;;5112305;28;20222;-66
2022/08/06 01:21:46;;;;;;;2.97;2.50;;;11.90;28.60;;;;;;5112319;28;20327;-66
2022/08/06 01:24:39;;;;;;;2.77;2.37;;;11.90;34.30;;;;;;5112351;28;20207;-66
2022/08/06 01:27:37;;;;;;;2.93;2.50;;;11.90;40.30;;;;;;5111933;28;20662;-66
2022/08/06 01:30:07;;;;;;;3.83;2.63;;;11.80;46.30;;;;;;5099430;28;20203;-66
2022/08/06 01:32:39;;;;;;;3.50;2.20;;;11.80;49.80;;;;;;5112287;28;20214;-66
2022/08/06 01:35:09;;;;;;;6.37;2.60;;;11.80;52.30;;;;;;5112087;28;20286;-67
2022/08/06 01:37:40;;;;;;;3.07;2.43;;;11.70;55.90;;;;;;5112023;28;20262;-67
2022/08/06 01:40:14;;;;;;;4.23;2.40;;;11.70;62.10;;;;;;5112320;28;20335;-66
2022/08/06 01:42:45;;;;;;;6.40;2.43;;;11.70;72.20;;;;;;5111990;28;20674;-66
2022/08/06 01:45:14;;;;;;;5.50;2.67;;;11.60;81.10;;;;;;5112135;28;20219;-66
2022/08/06 01:47:44;;;;;;;8.03;2.57;;;11.60;86.60;;;;;;5111802;28;20673;-66
2022/08/06 01:50:12;;;;;;;5.47;2.47;;;11.60;90.00;;;;;;5112207;28;20203;-66
2022/08/06 01:52:41;;;;;;;3.47;2.23;;;11.60;91.40;;;;;;5112147;28;20580;-67
2022/08/06 01:55:11;;;;;;;6.60;2.50;;;11.60;93.10;;;;;;5112040;28;20203;-66
2022/08/06 01:57:39;;;;;;;3.17;2.63;;;11.50;94.70;;;;;;5111709;28;20211;-67
2022/08/06 02:00:08;;;;;;;4.70;2.73;;;11.50;96.30;;;;;;5114679;28;20666;-66
2022/08/06 02:02:37;;;;;;;7.27;3.07;;;11.50;97.60;;;;;;5116155;28;20208;-66
2022/08/06 02:05:07;;;;;;;4.00;2.97;;;11.40;99.90;;;;;;5115908;28;20276;-66
2022/08/06 02:07:37;;;;;;;5.63;2.47;;;11.40;99.90;;;;;;5115752;28;20199;-66
2022/08/06 02:10:07;;;;;;;3.53;2.50;;;11.40;99.90;;;;;;5116283;28;20206;-66
2022/08/06 02:12:36;;;;;;;6.10;2.87;;;11.40;99.90;;;;;;5115487;28;20273;-67
2022/08/06 02:15:10;;;;;;;4.03;2.80;;;11.30;99.90;;;;;;5116059;28;20620;-66
2022/08/06 02:17:43;;;;;;;3.57;2.80;;;11.30;99.90;;;;;;5115529;28;20218;-66
2022/08/06 02:20:12;;;;;;;2.70;2.50;;;11.30;99.90;;;;;;5115712;28;20207;-66
2022/08/06 02:22:41;;;;;;;2.67;2.40;;;11.30;99.90;;;;;;5115436;28;20674;-66
2022/08/06 02:25:12;;;;;;;5.57;2.90;;;11.30;99.90;;;;;;5115234;28;20717;-67
2022/08/06 02:27:44;;;;;;;3.93;3.07;;;11.30;99.90;;;;;;5115206;28;20217;-66
2022/08/06 02:30:14;;;;;;;4.33;3.13;;;11.30;99.90;;;;;;5115548;28;20253;-66
2022/08/06 02:32:41;;;;;;;3.63;2.40;;;11.30;99.90;;;;;;5115445;28;20555;-67
2022/08/06 02:35:09;;;;;;;6.90;2.70;;;11.30;99.90;;;;;;5115443;28;20208;-66
2022/08/06 02:37:40;;;;;;;4.17;2.93;;;11.20;99.90;;;;;;5114752;28;20265;-66
2022/08/06 02:40:12;;;;;;;6.47;2.80;;;11.20;99.90;;;;;;5115420;28;20338;-66
2022/08/06 02:42:43;;;;;;;3.53;2.97;;;11.20;99.90;;;;;;5115167;27;20204;-66
2022/08/06 02:45:18;;;;;;;6.20;3.50;;;11.10;99.90;;;;;;5115122;28;20228;-66
2022/08/06 02:47:52;;;;;;;3.70;2.90;;;11.10;99.90;;;;;;5114731;28;20210;-67
2022/08/06 02:50:25;;;;;;;3.77;2.50;;;11.10;99.90;;;;;;5115147;28;20187;-66
2022/08/06 02:52:58;;;;;;;7.20;2.80;;;11.10;99.90;;;;;;5115144;28;20204;-66
2022/08/06 02:55:30;;;;;;;7.07;2.73;;;11.10;99.90;;;;;;5115088;28;20203;-66
2022/08/06 02:58:00;;;;;;;5.57;3.17;;;11.00;99.90;;;;;;5114551;28;20713;-67
2022/08/06 03:00:30;;;;;;;7.00;3.20;;;11.00;99.90;;;;;;5114753;28;20260;-66
2022/08/06 03:03:00;;;;;;;6.20;3.07;;;11.00;99.90;;;;;;5115188;28;20237;-66
2022/08/06 03:05:28;;;;;;;4.20;3.30;;;11.00;99.90;;;;;;5114804;28;20738;-66
2022/08/06 03:07:56;;;;;;;3.97;3.00;;;10.90;99.90;;;;;;5114639;28;20256;-66
2022/08/06 03:10:26;;;;;;;4.67;3.13;;;10.90;99.90;;;;;;5114531;28;20207;-66
2022/08/06 03:12:54;;;;;;;5.03;3.37;;;10.90;99.90;;;;;;5115004;28;20256;-67
2022/08/06 03:15:25;;;;;;;5.80;3.30;;;10.90;99.90;;;;;;5118113;28;20249;-67
2022/08/06 03:17:58;;;;;;;4.60;3.10;;;10.90;99.90;;;;;;5118826;28;20271;-67
2022/08/06 03:20:27;;;;;;;5.80;3.53;;;10.90;99.90;;;;;;5116684;28;20302;-66
2022/08/06 03:22:58;;;;;;;7.73;3.60;;;10.80;99.90;;;;;;5114383;28;20204;-67
2022/08/06 03:25:26;;;;;;;5.13;3.20;;;10.80;99.90;;;;;;5114142;28;20223;-67
2022/08/06 03:27:54;;;;;;;5.50;3.40;;;10.80;99.90;;;;;;5114069;28;20216;-67
2022/08/06 03:30:21;;;;;;;4.87;3.53;;;10.80;99.90;;;;;;5114212;28;20635;-67
2022/08/06 03:32:49;;;;;;;6.50;3.30;;;10.80;99.90;;;;;;5114100;28;20264;-66
2022/08/06 03:35:17;;;;;;;5.53;3.80;;;10.80;99.90;;;;;;5114229;28;20203;-66
2022/08/06 03:37:45;;;;;;;6.57;3.57;;;10.80;99.90;;;;;;5113788;28;20573;-66
2022/08/06 03:40:13;;;;;;;5.70;3.53;;;10.70;99.90;;;;;;5113794;28;20201;-66
2022/08/06 03:42:42;;;;;;;7.30;3.63;;;10.70;99.90;;;;;;5114137;28;20207;-66
2022/08/06 03:45:09;;;;;;;5.23;3.57;;;10.70;99.90;;;;;;5113820;27;20593;-66
2022/08/06 03:47:42;;;;;;;5.03;3.63;;;10.70;99.90;;;;;;5113522;28;20206;-66
2022/08/06 03:50:12;;;;;;;5.80;3.50;;;10.70;99.90;;;;;;5113943;28;20208;-66
2022/08/06 03:52:43;;;;;;;7.10;3.70;;;10.70;99.90;;;;;;5113627;28;20207;-66
2022/08/06 03:55:15;;;;;;;5.97;4.13;;;10.70;99.90;;;;;;5113750;28;20204;-66
2022/08/06 03:57:44;;;;;;;10.33;6.43;;;10.70;99.90;;;;;;5113345;27;20225;-66
2022/08/06 04:00:14;;;;;;;13.07;7.90;;;10.70;99.90;;;;;;5113700;28;20263;-66
2022/08/06 04:02:44;;;;;;;9.30;5.70;;;10.70;99.90;;;;;;5113616;28;20819;-66
2022/08/06 04:05:12;;;;;;;8.80;4.97;;;10.70;99.90;;;;;;5113470;28;20222;-66
2022/08/06 04:07:41;;;;;;;6.47;4.43;;;10.70;99.90;;;;;;5113210;28;20295;-66
2022/08/06 04:10:10;;;;;;;6.17;4.17;;;10.70;99.90;;;;;;5113659;28;20229;-66
2022/08/06 04:12:37;;;;;;;6.30;4.50;;;10.60;99.90;;;;;;5113345;28;20795;-66
2022/08/06 04:15:06;;;;;;;6.57;4.50;;;10.60;99.90;;;;;;5113465;28;20200;-66
2022/08/06 04:17:34;;;;;;;6.73;4.47;;;10.60;99.90;;;;;;5112749;28;20204;-66
2022/08/06 04:20:02;;;;;;;9.53;4.53;;;10.60;99.90;;;;;;5113150;28;20244;-66
2022/08/06 04:22:29;;;;;;;6.80;3.87;;;10.60;99.90;;;;;;5112555;28;20252;-66
2022/08/06 04:24:57;;;;;;;6.23;4.10;;;10.60;99.90;;;;;;5113071;28;20208;-66
2022/08/06 04:27:26;;;;;;;5.33;4.20;;;10.60;99.90;;;;;;5112758;28;20351;-66
2022/08/06 04:29:54;;;;;;;5.67;4.33;;;10.60;99.90;;;;;;5112954;28;20662;-66
2022/08/06 04:32:23;;;;;;;5.53;4.30;;;10.70;99.90;;;;;;5113087;28;20273;-66
2022/08/06 04:34:50;;;;;;;6.60;4.50;;;10.70;99.90;;;;;;5112933;28;20200;-66
2022/08/06 04:37:18;;;;;;;8.03;3.83;;;10.70;99.90;;;;;;5112490;28;20202;-66
2022/08/06 04:39:45;;;;;;;7.07;4.17;;;10.70;99.90;;;;;;5112487;28;20707;-66
2022/08/06 04:42:14;;;;;;;5.80;4.10;;;10.70;99.90;;;;;;5112796;28;20284;-66
2022/08/06 04:44:41;;;;;;;5.70;4.50;;;10.80;99.90;;;;;;5112689;28;20555;-66
2022/08/06 04:47:08;;;;;;;6.07;4.33;;;10.80;99.90;;;;;;5112595;28;20227;-66
2022/08/06 04:49:34;;;;;;;4.87;3.60;;;10.80;99.90;;;;;;5112877;28;20286;-66
2022/08/06 04:52:01;;;;;;;8.33;4.37;;;10.80;99.90;;;;;;5112525;28;20294;-66
2022/08/06 04:54:28;;;;;;;5.90;3.93;;;10.90;99.90;;;;;;5112657;28;20207;-66
2022/08/06 04:56:55;;;;;;;6.37;4.27;;;10.90;99.90;;;;;;5112356;28;20255;-66
2022/08/06 04:59:23;;;;;;;6.23;4.00;;;10.90;99.90;;;;;;5112519;28;20334;-66
2022/08/06 05:01:49;;;;;;;6.83;3.93;;;11.00;99.90;;;;;;5112563;28;20220;-66
2022/08/06 05:04:16;;;;;;;5.13;3.70;;;11.00;99.90;;;;;;5112677;28;20260;-66
2022/08/06 05:06:47;;;;;;;8.30;4.27;;;11.10;99.90;;;;;;5111949;28;20254;-66
2022/08/06 05:09:18;;;;;;;6.87;3.87;;;11.10;99.90;;;;;;5112541;28;20215;-66
2022/08/06 05:11:51;;;;;;;7.43;4.93;;;11.20;99.90;;;;;;5112218;28;20236;-66
2022/08/06 05:14:26;;;;;;;9.53;3.97;;;11.20;99.90;;;;;;5112613;28;20223;-66
2022/08/06 05:16:55;;;;;;;7.50;4.63;;;11.20;99.90;;;;;;5112090;28;20232;-66
2022/08/06 05:19:29;;;;;;;7.20;5.00;;;11.30;99.90;;;;;;5112189;28;20208;-66
2022/08/06 05:21:58;;;;;;;7.40;4.57;;;11.30;99.90;;;;;;5112277;28;20220;-66
2022/08/06 05:24:25;;;;;;;9.13;5.33;;;11.40;99.90;;;;;;5112256;28;20252;-66
2022/08/06 05:26:52;;;;;;;8.67;6.30;;;11.40;99.90;;;;;;5111965;28;20224;-66
2022/08/06 05:29:20;;;;;;;6.23;4.30;;;11.50;99.90;;;;;;5112427;28;20207;-66
2022/08/06 05:31:49;;;;;;;6.43;4.23;;;11.50;99.90;;;;;;5112196;28;20310;-66
2022/08/06 05:34:15;;;;;;;9.07;4.93;;;11.60;99.90;;;;;;5115667;28;20262;-66
2022/08/06 05:36:42;;;;;;;5.43;4.23;;;11.60;99.90;;;;;;5116090;28;20248;-66
2022/08/06 05:39:09;;;;;;;9.17;4.40;;;11.60;99.90;;;;;;5116539;28;20284;-66
2022/08/06 05:41:35;;;;;;;8.10;4.90;;;11.70;99.90;;;;;;5116918;28;20219;-66
2022/08/06 05:44:02;;;;;;;7.33;4.10;;;11.70;99.90;;;;;;5117045;28;20207;-66
2022/08/06 05:46:34;;;;;;;7.17;4.27;;;11.70;99.90;;;;;;5117174;28;20219;-66
2022/08/06 05:49:05;;;;;;;7.57;4.70;;;11.80;99.90;;;;;;5116895;28;20200;-66
2022/08/06 05:51:38;;;;;;;6.23;4.60;;;11.90;99.90;;;;;;5115883;28;20224;-66
2022/08/06 05:54:11;;;;;;;7.17;4.20;;;11.90;99.90;;;;;;5116279;28;20251;-66
2022/08/06 05:56:43;;;;;;;9.63;4.70;;;12.00;99.90;;;;;;5115851;28;20204;-66
2022/08/06 05:59:16;;;;;;;5.30;3.80;;;12.00;99.90;;;;;;5115912;28;20204;-66
2022/08/06 06:01:43;;;;;;;5.80;4.27;;;12.10;99.90;;;;;;5115828;28;20278;-66
2022/08/06 06:04:14;;;;;;;5.57;4.03;;;12.10;99.90;;;;;;5115964;28;20257;-66
2022/08/06 06:06:41;;;;;;;5.37;4.40;;;12.20;99.90;;;;;;5115470;28;20255;-66
2022/08/06 06:09:08;;;;;;;7.13;4.10;;;12.30;99.90;;;;;;5115612;28;20257;-67
2022/08/06 06:11:36;;;;;;;4.50;3.83;;;12.30;99.90;;;;;;5115737;27;20276;-67
2022/08/06 06:14:06;;;;;;;6.73;4.10;;;12.40;99.90;;;;;;5115592;28;20260;-67
2022/08/06 06:16:55;;;;;;;6.77;4.43;;;12.50;99.90;;;;;;5115297;28;20729;-67
2022/08/06 06:19:32;;;;;;;7.57;3.93;;;12.50;99.90;;;;;;5115465;28;20213;-67
2022/08/06 06:22:08;;;;;;;6.30;4.00;;;12.60;99.90;;;;;;5115575;28;20223;-67
2022/08/06 06:24:39;;;;;;;6.00;3.73;;;12.70;99.90;;;;;;5115493;28;20571;-66
2022/08/06 06:27:15;;;;;;;6.33;2.90;;;12.80;93.80;;;;;;5115380;28;20221;-67
2022/08/06 06:29:48;;;;;;;9.93;3.83;;;12.90;70.80;;;;;;5115323;28;20577;-67
2022/08/06 06:32:19;;;;;;;5.10;3.60;;;13.10;52.90;;;;;;5115346;28;20234;-66
2022/08/06 06:34:55;;;;;;;7.40;3.00;;;13.20;31.40;;;;;;5115482;28;20209;-67
2022/08/06 06:37:30;;;;;;;5.33;2.63;;;13.30;24.90;;;;;;5114994;28;20795;-66
2022/08/06 06:40:09;;;;;;;7.23;3.30;;;13.40;18.20;;;;;;5115185;28;20206;-66
2022/08/06 06:42:56;;;;;;;4.73;2.77;;;13.50;5.40;;;;;;5115284;28;20214;-66
2022/08/06 06:45:30;;;;;;;5.07;2.73;;;13.60;1.00;;;;;;5114490;28;20206;-66
2022/08/06 06:48:02;;;;;;;4.47;2.70;;;13.80;1.00;;;;;;5115763;28;20237;-66
2022/08/06 06:50:35;;;;;;;5.13;2.50;;;13.90;1.00;;;;;;5117363;28;20210;-67
2022/08/06 06:53:05;;;;;;;7.67;2.90;;;14.00;1.00;;;;;;5116916;28;20551;-67
2022/08/06 06:55:35;;;;;;;5.73;2.80;;;14.00;1.00;;;;;;5115471;28;20200;-66
2022/08/06 06:58:07;;;;;;;6.57;2.80;;;14.20;1.00;;;;;;5114455;28;20255;-66
2022/08/06 07:00:35;;;;;;;5.73;2.40;;;14.20;1.00;;;;;;5114963;28;20228;-66
2022/08/06 07:03:02;;;;;;;3.93;2.20;;;14.30;1.00;;;;;;5114820;28;20627;-66
2022/08/06 07:05:34;;;;;;;1.73;1.60;;;14.40;1.00;;;;;;5114957;28;20215;-66
2022/08/06 07:08:03;;;;;;;5.13;2.10;;;14.50;1.00;;;;;;5114195;28;20247;-66
2022/08/06 07:10:31;;;;;;;3.37;1.20;;;14.60;1.00;;;;;;5114280;28;20902;-66
2022/08/06 07:12:59;;;;;;;2.23;1.40;;;14.70;1.00;;;;;;5114679;28;20610;-66
2022/08/06 07:15:27;;;;;;;1.40;1.10;;;14.80;1.00;;;;;;5114731;28;20239;-66
2022/08/06 07:17:55;;;;;;;5.87;1.67;;;14.90;99.90;;;;;;5113931;28;20211;-66
2022/08/06 07:20:26;;;;;;;5.20;1.40;;;14.90;99.90;;;;;;5114373;28;20678;-66
2022/08/06 07:22:55;;;;;;;3.40;1.80;;;14.90;99.90;;;;;;5114288;28;20624;-66
2022/08/06 07:25:24;;;;;;;3.13;1.53;;;15.00;99.90;;;;;;5114130;28;20693;-66
2022/08/06 07:27:51;;;;;;;4.93;1.60;;;15.10;99.90;;;;;;5113941;28;20228;-66
2022/08/06 07:30:20;;;;;;;5.17;1.63;;;15.10;99.90;;;;;;5114498;28;20203;-66
2022/08/06 07:32:48;;;;;;;2.23;1.20;;;15.20;99.90;;;;;;5114460;28;20208;-66
2022/08/06 07:35:17;;;;;;;3.20;1.43;;;15.20;1.00;;;;;;5114247;28;20235;-66
2022/08/06 07:37:50;;;;;;;4.77;1.50;;;15.20;59.30;;;;;;5113653;28;20203;-66
2022/08/06 07:40:23;;;;;;;4.27;1.37;;;15.20;99.90;;;;;;5114214;28;20631;-66
2022/08/06 07:42:54;;;;;;;1.70;0.83;;;15.30;99.90;;;;;;5114130;28;20211;-66
2022/08/06 07:45:23;;;;;;;1.60;1.00;;;15.50;99.90;;;;;;5113852;28;20211;-66
2022/08/06 07:47:52;;;;;;;3.53;0.90;;;15.70;99.90;;;;;;5113375;28;20222;-70
2022/08/06 07:50:20;;;;;;;2.10;0.80;;;15.90;1.00;;;;;;5113683;28;20212;-69
2022/08/06 07:52:47;;;;;;;4.77;1.00;;;16.00;1.00;;;;;;5113856;27;20207;-69
2022/08/06 07:55:15;;;;;;;2.30;0.97;;;16.10;99.90;;;;;;5113734;28;20685;-68
2022/08/06 07:57:44;;;;;;;4.73;0.90;;;16.20;17.20;;;;;;5112497;28;20207;-68
2022/08/06 08:00:17;;;;;;;2.37;0.83;;;16.40;1.00;;;;;;5113754;28;20245;-71
2022/08/06 08:08:12;;;;;;;1.67;1.13;;;16.30;1.00;;;;;;5112909;28;20237;-70
2022/08/06 08:10:39;;;;;;;2.37;0.97;;;16.40;1.00;;;;;;5113293;27;20238;-70
2022/08/06 08:13:07;;;;;;;1.50;0.80;;;16.30;1.00;;;;;;5113365;28;20207;-70
2022/08/06 08:15:34;;;;;;;2.40;0.90;;;16.50;99.90;;;;;;5113248;28;20207;-70
2022/08/06 08:18:01;;;;;;;2.37;0.80;;;16.60;99.90;;;;;;5112970;28;20211;-70
2022/08/06 08:20:30;;;;;;;1.80;0.63;;;16.80;99.90;;;;;;5113103;28;20252;-70
2022/08/06 08:22:57;;;;;;;2.67;0.97;;;17.00;99.90;;;;;;5113328;28;20583;-70
2022/08/06 08:25:24;;;;;;;1.97;0.80;;;17.10;99.90;;;;;;5112928;28;20201;-71
2022/08/06 08:27:52;;;;;;;1.83;0.70;;;17.20;99.90;;;;;;5112809;28;20608;-71
2022/08/06 08:30:20;;;;;;;1.57;0.90;;;17.30;99.90;;;;;;5114175;28;20207;-71
2022/08/06 08:32:47;;;;;;;3.47;1.47;;;17.20;99.90;;;;;;5113154;28;20211;-71
2022/08/06 08:35:15;;;;;;;1.63;0.80;;;17.30;99.90;;;;;;5113343;28;20200;-70
2022/08/06 08:37:42;;;;;;;1.10;0.67;;;17.50;99.90;;;;;;5112617;28;20214;-69
2022/08/06 08:40:10;;;;;;;2.53;0.60;;;17.50;99.90;;;;;;5113210;28;20611;-68
2022/08/06 08:42:41;;;;;;;4.43;0.60;;;17.30;99.90;;;;;;5112858;28;20208;-69
2022/08/06 08:45:08;;;;;;;2.37;0.60;;;17.30;99.90;;;;;;5112911;28;20606;-68
2022/08/06 08:47:44;;;;;;;1.13;0.70;;;17.20;99.90;;;;;;5112604;28;20228;-68
2022/08/06 08:50:12;;;;;;;1.43;0.60;;;17.20;99.90;;;;;;5112842;28;20206;-69
2022/08/06 08:52:44;;;;;;;1.57;0.60;;;17.10;99.90;;;;;;5112558;28;20207;-68
2022/08/06 08:55:14;;;;;;;2.97;0.70;;;17.30;99.90;;;;;;5113573;28;20210;-69
2022/08/06 08:57:42;;;;;;;2.43;0.80;;;17.30;99.90;;;;;;5113106;28;20233;-69
2022/08/06 09:00:10;;;;;;;1.33;0.57;;;17.20;99.90;;;;;;5112490;28;20204;-69
2022/08/06 09:02:39;;;;;;;1.03;0.60;;;17.30;99.90;;;;;;5112294;28;20313;-68
2022/08/06 09:05:07;;;;;;;2.73;0.60;;;17.50;99.90;;;;;;5112365;28;20214;-68
2022/08/06 09:07:34;;;;;;;3.80;0.87;;;17.60;99.90;;;;;;5111877;28;20699;-68
2022/08/06 09:10:01;;;;;;;1.70;0.70;;;17.80;99.90;;;;;;5112460;28;20204;-68
2022/08/06 09:12:28;;;;;;;2.70;0.60;;;18.00;99.90;;;;;;5112499;28;20227;-69
2022/08/06 09:14:55;;;;;;;1.00;0.40;;;18.10;99.90;;;;;;5112410;28;20260;-68
2022/08/06 09:17:23;;;;;;;0.50;0.40;;;18.20;99.90;;;;;;5112276;28;20248;-68
2022/08/06 09:19:51;;;;;;;2.43;0.50;;;18.40;99.90;;;;;;5112101;28;20289;-69
2022/08/06 09:22:18;;;;;;;4.80;0.50;;;18.60;99.90;;;;;;5112567;28;20228;-68
2022/08/06 09:24:45;;;;;;;1.60;0.50;;;18.60;99.90;;;;;;5112189;28;20260;-69
2022/08/06 09:27:12;;;;;;;1.17;0.40;;;18.70;99.90;;;;;;5112126;28;20220;-69
2022/08/06 09:29:50;;;;;;;4.30;2.20;;;18.80;99.90;;;;;;5112343;28;20252;-69
2022/08/06 09:32:39;;;;;;;3.93;0.70;;;18.70;99.90;;;;;;5111994;28;20794;-69
2022/08/06 09:35:18;;;;;;;1.93;0.33;;;18.90;99.90;;;;;;5111966;28;20665;-69
2022/08/06 09:37:45;;;;;;;2.73;0.40;;;19.20;99.90;;;;;;5106633;28;20229;-71
2022/08/06 09:40:13;;;;;;;2.07;0.77;;;19.00;99.90;;;;;;5101303;28;20666;-73
2022/08/06 09:42:41;;;;;;;2.03;0.60;;;18.80;99.90;;;;;;5108365;28;20739;-74
2022/08/06 09:45:08;;;;;;;1.43;0.70;;;18.50;99.90;;;;;;5111576;28;20290;-74
2022/08/06 09:47:37;;;;;;;0.60;0.37;;;18.40;99.90;;;;;;5110704;28;20705;-75
2022/08/06 09:50:05;;;;;;;1.87;0.50;;;18.10;99.90;;;;;;5111529;28;20204;-74
2022/08/06 09:52:34;;;;;;;3.53;0.70;;;18.10;99.90;;;;;;5111362;28;20293;-72
2022/08/06 09:55:01;;;;;;;1.70;0.60;;;18.40;99.90;;;;;;5111521;28;20208;-71
2022/08/06 09:57:42;;;;;;;1.70;0.60;;;18.40;99.90;;;;;;5111465;28;20196;-76
2022/08/06 10:00:10;;;;;;;0.70;0.50;;;18.60;99.90;;;;;;5111508;28;20203;-71
2022/08/06 10:02:38;;;;;;;1.90;0.40;;;18.70;99.90;;;;;;5111519;28;20207;-72
2022/08/06 10:05:09;;;;;;;0.60;0.30;;;18.90;99.90;;;;;;5111423;28;20215;-74
2022/08/06 10:07:37;;;;;;;0.40;0.37;;;19.00;99.90;;;;;;5110928;28;20219;-73
2022/08/06 10:10:05;;;;;;;1.00;0.57;;;19.00;99.90;;;;;;5111120;28;20199;-74
2022/08/06 10:12:32;;;;;;;3.17;0.70;;;19.10;99.90;;;;;;5111313;28;20273;-73
2022/08/06 10:14:59;;;;;;;0.70;0.40;;;19.50;99.90;;;;;;5108696;28;20214;-74
2022/08/06 10:17:26;;;;;;;1.00;0.30;;;19.50;99.90;;;;;;5111091;28;20240;-67
2022/08/06 10:20:07;;;;;;;1.10;0.33;;;19.60;99.90;;;;;;5112072;28;20212;-68
2022/08/06 10:22:35;;;;;;;2.53;0.30;;;19.50;99.90;;;;;;5115403;28;20633;-68
2022/08/06 10:25:06;;;;;;;2.40;0.50;;;19.40;99.90;;;;;;5116749;27;20290;-68
2022/08/06 10:27:34;;;;;;;0.80;0.30;;;19.40;99.90;;;;;;5126218;28;20248;-69
2022/08/06 10:30:04;;;;;;;0.30;0.30;;;19.50;99.90;;;;;;5124032;28;20231;-68
2022/08/06 10:32:34;;;;;;;2.47;0.50;;;19.00;99.90;;;;;;5115425;28;20243;-68
2022/08/06 10:35:03;;;;;;;1.00;0.40;;;18.70;99.90;;;;;;5116474;28;20248;-69
2022/08/06 10:37:33;;;;;;;0.60;0.30;;;18.60;99.90;;;;;;5122365;27;20256;-69
2022/08/06 10:40:04;;;;;;;0.63;0.37;;;18.70;99.90;;;;;;5121260;27;20257;-69
2022/08/06 10:42:31;;;;;;;0.80;0.40;;;18.80;99.90;;;;;;5117785;28;20227;-68
2022/08/06 10:44:59;;;;;;;2.23;0.40;;;19.00;99.90;;;;;;5114498;28;20199;-68
2022/08/06 10:47:28;;;;;;;1.60;0.40;;;19.30;99.90;;;;;;5114481;28;20257;-69
2022/08/06 10:49:56;;;;;;;0.70;0.33;;;19.60;99.90;;;;;;5114280;27;20256;-67
2022/08/06 10:52:23;;;;;;;2.10;0.40;;;19.90;99.90;;;;;;5114393;28;20280;-66
2022/08/06 10:54:52;;;;;;;0.63;0.30;;;20.30;99.90;;;;;;5114318;28;20205;-63
2022/08/06 10:57:20;;;;;;;0.70;0.30;;;20.10;99.90;;;;;;5113093;28;20264;-63
2022/08/06 10:59:48;;;;;;;0.90;0.40;;;20.30;99.90;;;;;;5114095;28;20203;-64
2022/08/06 11:02:26;;;;;;;2.00;0.63;;;20.40;99.90;;;;;;5114383;28;20280;-63
2022/08/06 11:04:59;;;;;;;1.50;0.50;;;20.60;99.90;;;;;;5114475;28;20630;-63
2022/08/06 11:07:47;;;;;;;2.53;0.73;;;20.80;99.90;;;;;;5113726;28;20220;-64
2022/08/06 11:10:41;;;;;;;0.27;0.23;;;20.60;99.90;;;;;;5113887;28;20203;-65
2022/08/06 11:13:19;;;;;;;0.67;0.30;;;20.30;99.90;;;;;;5103420;28;20612;-65
2022/08/06 11:15:46;;;;;;;1.50;0.30;;;20.30;99.90;;;;;;5114133;28;20252;-66
2022/08/06 11:18:13;;;;;;;0.87;0.30;;;20.30;99.90;;;;;;5113543;28;20629;-64
2022/08/06 11:20:42;;;;;;;1.57;0.80;;;20.40;99.90;;;;;;5113429;28;20231;-65
2022/08/06 11:23:31;;;;;;;64.93;33.57;;;20.70;99.90;;;;;;5113966;28;20207;-63
2022/08/06 11:26:01;;;;;;;1.23;0.30;;;20.90;99.90;;;;;;5113606;28;20214;-66
2022/08/06 11:29:00;;;;;;;1.60;0.60;;;20.70;99.90;;;;;;5113499;28;20228;-64
2022/08/06 11:31:39;;;;;;;8.07;3.50;;;20.00;99.90;;;;;;5113700;28;20591;-63
2022/08/06 11:34:10;;;;;;;4.27;1.83;;;19.80;99.90;;;;;;5113836;28;20235;-73
2022/08/06 11:36:52;;;;;;;6.90;3.23;;;19.50;99.90;;;;;;5113388;28;20208;-70
2022/08/06 11:39:21;;;;;;;1.97;0.40;;;19.40;99.90;;;;;;5113304;28;20625;-68
2022/08/06 11:41:52;;;;;;;2.87;0.80;;;19.50;99.90;;;;;;5113327;28;20314;-68
2022/08/06 11:44:20;;;;;;;5.23;2.77;;;19.50;99.90;;;;;;5113729;28;20203;-70
2022/08/06 11:46:48;;;;;;;0.53;0.43;;;19.50;99.90;;;;;;5112765;28;20555;-70
2022/08/06 11:49:19;;;;;;;8.33;3.23;;;19.30;99.90;;;;;;5113485;28;20277;-68
2022/08/06 11:51:48;;;;;;;2.47;0.57;;;19.20;99.90;;;;;;5112892;28;20306;-69
2022/08/06 11:54:17;;;;;;;0.50;0.33;;;19.30;99.90;;;;;;5113582;27;20627;-68
2022/08/06 11:57:23;;;;;;;2.53;1.07;;;19.30;99.90;;;;;;5112932;28;20264;-69
2022/08/06 12:00:22;;;;;;;1.00;0.50;;;19.40;99.90;;;;;;5113073;28;20214;-66
2022/08/06 12:02:56;;;;;;;3.30;0.50;;;19.40;99.90;;;;;;5050119;28;20205;-67
2022/08/06 12:05:44;;;;;;;0.70;0.40;;;19.70;99.90;;;;;;5102562;28;20214;-68
2022/08/06 12:08:23;;;;;;;1.27;0.40;;;20.00;99.90;;;;;;5112610;28;20311;-68
2022/08/06 12:11:27;;;;;;;0.27;0.27;;;20.40;99.90;;;;;;5112801;28;20227;-67
2022/08/06 12:13:54;;;;;;;2.80;0.77;;;20.80;99.90;;;;;;5112603;28;20210;-66
2022/08/06 12:16:33;;;;;;;1.03;0.50;;;21.00;99.90;;;;;;5112538;28;20874;-66
2022/08/06 12:19:01;;;;;;;1.10;0.50;;;20.80;99.90;;;;;;5112516;28;20215;-66
2022/08/06 12:21:29;;;;;;;0.87;0.40;;;20.80;99.90;;;;;;5111991;28;20662;-68
2022/08/06 12:23:55;;;;;;;1.00;0.40;;;20.90;99.90;;;;;;5112889;27;20200;-67
2022/08/06 12:26:24;;;;;;;0.97;0.20;;;20.50;99.90;;;;;;5112130;28;20203;-66
2022/08/06 12:28:51;;;;;;;1.47;0.30;;;20.40;99.90;;;;;;5112626;28;20227;-65
2022/08/06 12:31:38;;;;;;;1.77;0.47;;;20.30;99.90;;;;;;5112003;27;20227;-66
2022/08/06 12:34:06;;;;;;;0.47;0.20;;;20.20;99.90;;;;;;5112156;28;20900;-65
2022/08/06 12:36:34;;;;;;;0.87;0.30;;;20.40;99.90;;;;;;5112278;28;20211;-65
2022/08/06 12:39:04;;;;;;;0.57;0.40;;;20.50;99.90;;;;;;5112460;28;20662;-65
2022/08/06 12:41:41;;;;;;;2.13;0.50;;;20.70;99.90;;;;;;5111845;28;20736;-65
2022/08/06 12:44:12;;;;;;;0.93;0.30;;;20.80;99.90;;;;;;5112352;28;20290;-66
2022/08/06 12:46:40;;;;;;;1.30;0.40;;;21.10;99.90;;;;;;5111935;28;20239;-65
2022/08/06 12:49:08;;;;;;;0.40;0.30;;;21.10;99.90;;;;;;5112396;28;20230;-65
2022/08/06 12:51:35;;;;;;;0.73;0.40;;;21.40;99.90;;;;;;5111888;28;20230;-65
2022/08/06 12:54:05;;;;;;;0.70;0.40;;;21.60;99.90;;;;;;5112253;28;20200;-65
2022/08/06 12:56:33;;;;;;;2.00;0.43;;;21.80;99.90;;;;;;5111585;28;20605;-65
2022/08/06 12:59:03;;;;;;;2.33;0.40;;;21.80;99.90;;;;;;5112420;28;20620;-66
2022/08/06 13:01:31;;;;;;;0.47;0.40;;;21.80;99.90;;;;;;5112007;28;20309;-65
2022/08/06 13:04:02;;;;;;;0.47;0.30;;;21.90;99.90;;;;;;5112178;28;20214;-65
2022/08/06 13:06:30;;;;;;;9.40;4.80;;;21.80;99.90;;;;;;5111715;28;20211;-66
2022/08/06 13:08:57;;;;;;;1.17;0.50;;;21.60;99.90;;;;;;5111482;27;20249;-65